createdAt,value
2019-05-29T00:00:46.881Z,86.00
2019-05-29T00:03:18.638Z,86.00
2019-05-29T00:05:49.356Z,86.40
2019-05-29T00:08:20.137Z,86.20
2019-05-29T00:10:50.809Z,86.40
2019-05-29T00:13:21.476Z,86.70
2019-05-29T00:15:54.341Z,86.80
2019-05-29T00:18:25.171Z,86.80
2019-05-29T00:20:55.870Z,86.60
2019-05-29T00:23:26.594Z,86.60
2019-05-29T00:25:57.426Z,86.70
2019-05-29T00:28:28.621Z,86.80
2019-05-29T00:31:01.611Z,86.80
2019-05-29T00:33:33.663Z,86.80
2019-05-29T00:36:04.379Z,86.80
2019-05-29T00:38:35.150Z,86.90
2019-05-29T00:41:08.878Z,86.90
2019-05-29T00:43:40.494Z,87.10
2019-05-29T00:46:11.397Z,87.50
2019-05-29T00:48:42.235Z,87.50
2019-05-29T00:51:13.018Z,87.70
2019-05-29T00:53:43.801Z,87.80
2019-05-29T00:56:16.677Z,87.70
2019-05-29T00:58:49.032Z,87.90
2019-05-29T01:01:20.135Z,87.70
2019-05-29T01:03:52.279Z,87.90
2019-05-29T01:06:22.920Z,87.90
2019-05-29T01:08:53.832Z,88.00
2019-05-29T01:11:25.076Z,88.20
2019-05-29T01:13:55.747Z,88.10
2019-05-29T01:16:26.474Z,88.10
2019-05-29T01:18:58.759Z,88.10
2019-05-29T01:21:30.928Z,88.00
2019-05-29T01:24:01.654Z,87.80
2019-05-29T01:26:33.606Z,87.80
2019-05-29T01:29:05.121Z,87.80
2019-05-29T01:31:35.901Z,87.80
2019-05-29T01:34:06.556Z,87.90
2019-05-29T01:36:37.303Z,87.80
2019-05-29T01:39:08.893Z,87.80
2019-05-29T01:41:39.678Z,88.80
2019-05-29T01:44:10.716Z,88.10
2019-05-29T01:46:42.451Z,88.30
2019-05-29T01:49:13.031Z,88.30
2019-05-29T01:51:43.696Z,88.30
2019-05-29T01:54:15.441Z,88.30
2019-05-29T01:56:46.108Z,88.10
2019-05-29T01:59:17.838Z,87.90
2019-05-29T02:01:48.526Z,87.90
2019-05-29T02:04:19.838Z,87.90
2019-05-29T02:06:49.348Z,88.00
2019-05-29T02:09:20.265Z,88.60
2019-05-29T02:11:50.869Z,87.70
2019-05-29T02:14:22.623Z,87.60
2019-05-29T02:16:53.751Z,87.40
2019-05-29T02:19:24.565Z,87.40
2019-05-29T02:21:55.276Z,87.40
2019-05-29T02:24:25.921Z,87.40
2019-05-29T02:26:56.620Z,87.40
2019-05-29T02:29:27.341Z,87.40
2019-05-29T02:32:00.421Z,87.40
2019-05-29T02:34:31.021Z,87.40
2019-05-29T02:37:01.728Z,87.70
2019-05-29T02:39:32.403Z,87.60
2019-05-29T02:42:03.088Z,87.70
2019-05-29T02:44:33.714Z,87.90
2019-05-29T02:47:05.333Z,87.80
2019-05-29T02:49:35.881Z,87.90
2019-05-29T02:52:06.542Z,87.90
2019-05-29T02:54:37.224Z,87.90
2019-05-29T02:57:07.863Z,88.00
2019-05-29T02:59:38.633Z,88.10
2019-05-29T03:02:10.089Z,88.20
2019-05-29T03:04:42.834Z,88.20
2019-05-29T03:07:13.478Z,88.20
2019-05-29T03:09:44.165Z,88.30
2019-05-29T03:12:17.953Z,88.30
2019-05-29T03:14:48.478Z,88.30
2019-05-29T03:17:19.201Z,88.30
2019-05-29T03:19:49.910Z,88.30
2019-05-29T03:22:20.670Z,88.40
2019-05-29T03:24:51.368Z,88.30
2019-05-29T03:27:22.129Z,88.40
2019-05-29T03:29:55.839Z,88.50
2019-05-29T03:32:28.003Z,88.60
2019-05-29T03:34:58.891Z,88.70
2019-05-29T03:37:30.336Z,88.80
2019-05-29T03:40:01.171Z,88.90
2019-05-29T03:42:32.604Z,89.10
2019-05-29T03:45:03.388Z,89.20
2019-05-29T03:47:35.078Z,89.30
2019-05-29T03:50:06.294Z,89.40
2019-05-29T03:52:38.994Z,89.50
2019-05-29T03:55:09.329Z,89.60
2019-05-29T03:57:41.136Z,89.60
2019-05-29T04:00:13.648Z,89.70
2019-05-29T04:02:44.526Z,89.80
2019-05-29T04:05:15.309Z,90.10
2019-05-29T04:07:45.988Z,90.00
2019-05-29T04:10:22.844Z,90.00
2019-05-29T04:12:53.558Z,90.00
2019-05-29T04:15:24.475Z,90.10
2019-05-29T04:17:56.542Z,90.70
2019-05-29T04:20:27.635Z,90.40
2019-05-29T04:23:00.015Z,90.40
2019-05-29T04:25:38.329Z,90.40
2019-05-29T04:28:09.245Z,90.50
2019-05-29T04:30:39.900Z,90.60
2019-05-29T04:33:13.924Z,90.60
2019-05-29T04:35:44.751Z,90.60
2019-05-29T04:38:17.464Z,90.60
2019-05-29T04:40:48.216Z,90.60
2019-05-29T04:43:19.002Z,90.60
2019-05-29T04:45:50.152Z,90.60
2019-05-29T04:48:20.906Z,90.60
2019-05-29T04:50:52.577Z,90.60
2019-05-29T04:53:26.812Z,90.60
2019-05-29T04:55:57.522Z,90.50
2019-05-29T04:58:28.770Z,90.50
2019-05-29T05:00:59.538Z,90.50
2019-05-29T05:03:37.179Z,90.60
2019-05-29T05:06:08.170Z,90.40
2019-05-29T05:08:40.212Z,90.30
2019-05-29T05:11:12.423Z,90.40
2019-05-29T05:13:42.016Z,90.30
2019-05-29T05:16:12.811Z,90.40
2019-05-29T05:18:43.549Z,90.20
2019-05-29T05:21:14.174Z,90.00
2019-05-29T05:23:47.555Z,89.80
2019-05-29T05:26:18.474Z,89.30
2019-05-29T05:28:51.484Z,89.00
2019-05-29T05:31:22.913Z,88.60
2019-05-29T05:33:53.602Z,88.00
2019-05-29T05:36:24.489Z,87.90
2019-05-29T05:38:56.464Z,87.50
2019-05-29T05:41:27.114Z,87.00
2019-05-29T05:43:59.005Z,86.30
2019-05-29T05:46:32.850Z,85.70
2019-05-29T05:49:03.702Z,85.60
2019-05-29T05:51:38.145Z,85.40
2019-05-29T05:54:06.735Z,85.00
2019-05-29T05:56:37.940Z,84.70
2019-05-29T05:59:08.847Z,84.60
2019-05-29T06:01:42.119Z,84.00
2019-05-29T06:04:15.482Z,83.70
2019-05-29T06:06:46.570Z,83.50
2019-05-29T06:09:17.275Z,83.10
2019-05-29T06:11:49.113Z,82.90
2019-05-29T06:14:19.836Z,83.00
2019-05-29T06:16:50.476Z,83.10
2019-05-29T06:19:21.217Z,83.30
2019-05-29T06:21:51.941Z,83.60
2019-05-29T06:24:22.629Z,83.80
2019-05-29T06:26:53.262Z,83.90
2019-05-29T06:29:23.933Z,84.00
2019-05-29T06:31:54.603Z,84.10
2019-05-29T06:34:26.863Z,83.80
2019-05-29T06:36:56.475Z,83.80
2019-05-29T06:39:27.170Z,83.50
2019-05-29T06:41:57.814Z,83.10
2019-05-29T06:44:28.430Z,82.50
2019-05-29T06:46:58.905Z,82.40
2019-05-29T06:49:30.084Z,82.50
2019-05-29T06:52:00.983Z,82.40
2019-05-29T06:54:33.067Z,82.20
2019-05-29T06:57:15.759Z,81.80
2019-05-29T06:59:46.456Z,81.90
2019-05-29T07:02:19.441Z,81.40
2019-05-29T07:04:50.212Z,80.60
2019-05-29T07:07:20.943Z,79.50
2019-05-29T07:09:54.338Z,78.20
2019-05-29T07:12:25.115Z,77.60
2019-05-29T07:15:01.174Z,77.00
2019-05-29T07:17:32.864Z,76.10
2019-05-29T07:20:04.400Z,75.50
2019-05-29T07:22:36.810Z,75.10
2019-05-29T07:25:08.230Z,74.80
2019-05-29T07:27:38.718Z,74.30
2019-05-29T07:30:09.951Z,74.20
2019-05-29T07:32:42.381Z,73.40
2019-05-29T07:35:13.310Z,71.90
2019-05-29T07:37:44.072Z,72.80
2019-05-29T07:40:15.324Z,72.50
2019-05-29T07:42:50.565Z,72.10
2019-05-29T07:45:17.981Z,70.20
2019-05-29T07:47:51.054Z,71.10
2019-05-29T07:50:21.850Z,71.20
2019-05-29T07:52:52.597Z,70.70
2019-05-29T07:55:24.324Z,70.20
2019-05-29T07:58:03.118Z,69.00
2019-05-29T08:03:35.205Z,67.90
2019-05-29T08:06:06.198Z,68.50
2019-05-29T08:08:37.332Z,69.10
2019-05-29T08:11:09.254Z,68.50
2019-05-29T08:13:41.422Z,67.30
2019-05-29T08:16:15.395Z,66.00
2019-05-29T08:18:49.021Z,65.00
2019-05-29T08:21:22.099Z,63.80
2019-05-29T08:23:53.441Z,60.90
2019-05-29T08:26:28.316Z,60.10
2019-05-29T08:29:02.095Z,60.10
2019-05-29T08:31:33.024Z,59.50
2019-05-29T08:34:05.629Z,59.20
2019-05-29T08:36:36.995Z,59.70
2019-05-29T08:39:10.309Z,59.40
2019-05-29T08:41:53.665Z,58.30
2019-05-29T08:44:13.647Z,58.90
2019-05-29T08:47:01.415Z,58.70
2019-05-29T08:49:19.463Z,59.00
2019-05-29T08:51:50.497Z,57.70
2019-05-29T08:54:24.158Z,57.60
2019-05-29T08:56:54.440Z,57.80
2019-05-29T08:59:25.085Z,56.30
2019-05-29T09:01:55.810Z,55.90
2019-05-29T09:04:26.533Z,54.90
2019-05-29T09:06:57.213Z,53.70
2019-05-29T09:09:27.854Z,53.70
2019-05-29T09:11:58.487Z,54.40
2019-05-29T09:14:29.263Z,53.70
2019-05-29T09:16:59.886Z,54.00
2019-05-29T09:19:30.523Z,54.30
2019-05-29T09:22:01.199Z,54.30
2019-05-29T09:24:32.096Z,53.40
2019-05-29T09:27:02.591Z,52.50
2019-05-29T09:29:34.277Z,52.10
2019-05-29T09:32:04.941Z,51.10
2019-05-29T09:34:35.909Z,50.70
2019-05-29T09:37:06.509Z,50.50
2019-05-29T09:39:37.184Z,50.00
2019-05-29T09:42:07.883Z,49.80
2019-05-29T09:44:40.061Z,50.10
2019-05-29T09:47:12.019Z,49.30
2019-05-29T09:49:42.724Z,49.90
2019-05-29T09:52:13.782Z,50.70
2019-05-29T09:54:46.341Z,50.70
2019-05-29T09:57:17.062Z,50.60
2019-05-29T09:59:47.825Z,49.00
2019-05-29T10:02:18.658Z,48.50
2019-05-29T10:04:49.212Z,49.10
2019-05-29T10:07:19.919Z,49.80
2019-05-29T10:09:50.713Z,49.10
2019-05-29T10:12:21.451Z,49.00
2019-05-29T10:14:53.693Z,50.10
2019-05-29T10:17:25.556Z,50.00
2019-05-29T10:19:57.228Z,49.80
2019-05-29T10:22:28.434Z,49.80
2019-05-29T10:25:00.008Z,50.20
2019-05-29T10:27:30.805Z,49.60
2019-05-29T10:30:01.441Z,49.70
2019-05-29T10:32:33.676Z,48.20
2019-05-29T10:35:04.576Z,48.00
2019-05-29T10:37:35.404Z,47.90
2019-05-29T10:40:06.775Z,48.50
2019-05-29T10:42:37.576Z,48.70
2019-05-29T10:45:08.988Z,48.90
2019-05-29T10:47:39.711Z,49.20
2019-05-29T10:50:11.165Z,49.60
2019-05-29T10:52:42.126Z,49.30
2019-05-29T10:55:15.957Z,48.20
2019-05-29T10:57:46.722Z,47.30
2019-05-29T11:00:17.949Z,48.50
2019-05-29T11:02:48.117Z,48.10
2019-05-29T11:05:20.122Z,49.10
2019-05-29T11:07:51.893Z,47.10
2019-05-29T11:10:23.149Z,46.50
2019-05-29T11:12:52.768Z,46.80
2019-05-29T11:15:23.473Z,47.00
2019-05-29T11:17:55.339Z,47.90
2019-05-29T11:20:27.850Z,46.70
2019-05-29T11:22:58.557Z,46.80
2019-05-29T11:25:29.340Z,46.30
2019-05-29T11:28:00.007Z,46.60
2019-05-29T11:30:31.237Z,47.30
2019-05-29T11:33:02.628Z,45.50
2019-05-29T11:35:33.346Z,45.40
2019-05-29T11:38:04.173Z,44.90
2019-05-29T11:40:36.197Z,44.40
2019-05-29T11:43:07.141Z,43.70
2019-05-29T11:45:37.890Z,43.90
2019-05-29T11:48:09.503Z,44.10
2019-05-29T11:50:40.314Z,43.50
2019-05-29T11:53:11.088Z,44.30
2019-05-29T11:55:42.705Z,42.90
2019-05-29T11:58:30.044Z,43.10
2019-05-29T12:00:47.067Z,42.80
2019-05-29T12:03:20.596Z,43.80
2019-05-29T12:05:53.376Z,44.90
2019-05-29T12:08:25.077Z,45.20
2019-05-29T12:10:57.169Z,45.20
2019-05-29T12:13:29.674Z,45.50
2019-05-29T12:16:01.856Z,45.50
2019-05-29T12:18:33.391Z,46.20
2019-05-29T12:21:04.129Z,44.80
2019-05-29T12:23:38.974Z,45.70
2019-05-29T12:26:21.820Z,45.60
2019-05-29T12:28:42.033Z,46.60
2019-05-29T12:31:12.754Z,45.70
2019-05-29T12:33:43.442Z,46.40
2019-05-29T12:36:14.569Z,46.80
2019-05-29T12:38:45.230Z,48.10
2019-05-29T12:41:15.993Z,48.00
2019-05-29T12:43:46.069Z,49.10
2019-05-29T12:46:16.649Z,48.50
2019-05-29T12:48:47.319Z,49.10
2019-05-29T12:51:17.996Z,50.20
2019-05-29T12:53:48.789Z,51.90
2019-05-29T12:56:20.006Z,52.70
2019-05-29T12:58:51.114Z,54.40
2019-05-29T13:01:21.767Z,55.90
2019-05-29T13:03:52.493Z,56.60
2019-05-29T13:06:22.981Z,57.40
2019-05-29T13:08:54.595Z,57.30
2019-05-29T13:11:25.348Z,57.50
2019-05-29T13:13:56.296Z,57.90
2019-05-29T13:16:27.017Z,58.50
2019-05-29T13:18:58.946Z,59.30
2019-05-29T13:21:29.762Z,60.40
2019-05-29T13:24:02.260Z,61.50
2019-05-29T13:26:34.237Z,62.00
2019-05-29T13:29:06.037Z,63.90
2019-05-29T13:31:36.794Z,65.80
2019-05-29T13:34:07.422Z,67.40
2019-05-29T13:36:38.131Z,68.90
2019-05-29T13:39:09.328Z,70.20
2019-05-29T13:41:39.920Z,70.60
2019-05-29T13:44:10.607Z,71.30
2019-05-29T13:46:41.265Z,71.90
2019-05-29T13:49:11.970Z,71.90
2019-05-29T13:51:42.762Z,71.50
2019-05-29T13:54:17.051Z,71.10
2019-05-29T13:56:45.941Z,71.80
2019-05-29T13:59:16.565Z,71.00
2019-05-29T14:01:48.611Z,70.60
2019-05-29T14:04:19.601Z,71.30
2019-05-29T14:06:52.878Z,72.10
2019-05-29T14:09:23.274Z,71.40
2019-05-29T14:11:52.837Z,72.10
2019-05-29T14:14:23.630Z,75.60
2019-05-29T14:16:54.957Z,74.60
2019-05-29T14:19:24.544Z,75.00
2019-05-29T14:21:55.432Z,77.40
2019-05-29T14:24:29.647Z,76.60
2019-05-29T14:26:58.570Z,76.90
2019-05-29T14:29:29.193Z,78.70
2019-05-29T14:32:00.969Z,79.10
2019-05-29T14:34:33.193Z,79.60
2019-05-29T14:37:04.950Z,80.60
2019-05-29T14:39:36.153Z,81.90
2019-05-29T14:42:08.260Z,82.70
2019-05-29T14:44:39.044Z,82.40
2019-05-29T14:47:10.272Z,82.20
2019-05-29T14:49:40.943Z,82.70
2019-05-29T14:52:12.079Z,83.40
2019-05-29T14:54:44.002Z,84.20
2019-05-29T14:57:24.772Z,84.70
2019-05-29T14:59:48.888Z,84.30
2019-05-29T15:02:23.810Z,84.20
2019-05-29T15:04:52.302Z,84.30
2019-05-29T15:07:23.179Z,84.30
2019-05-29T15:09:54.038Z,84.20
2019-05-29T15:12:24.755Z,84.70
2019-05-29T15:14:55.802Z,85.00
2019-05-29T15:17:26.650Z,84.40
2019-05-29T15:19:59.936Z,84.10
2019-05-29T15:22:30.779Z,83.60
2019-05-29T15:25:11.277Z,83.80
2019-05-29T15:27:36.565Z,83.60
2019-05-29T15:30:08.793Z,83.20
2019-05-29T15:32:40.094Z,83.20
2019-05-29T15:35:14.880Z,83.10
2019-05-29T15:37:43.540Z,83.00
2019-05-29T15:40:14.922Z,83.30
2019-05-29T15:42:45.653Z,84.40
2019-05-29T15:45:18.284Z,84.00
2019-05-29T15:47:49.202Z,84.30
2019-05-29T15:50:19.944Z,84.50
2019-05-29T15:52:52.853Z,84.90
2019-05-29T15:55:32.226Z,86.50
2019-05-29T15:57:55.950Z,87.20
2019-05-29T16:00:26.755Z,87.50
2019-05-29T16:03:00.322Z,87.80
2019-05-29T16:05:31.161Z,87.90
2019-05-29T16:08:03.470Z,88.30
2019-05-29T16:10:34.163Z,88.20
2019-05-29T16:13:05.062Z,89.40
2019-05-29T16:15:35.765Z,89.00
2019-05-29T16:18:19.075Z,89.00
2019-05-29T16:20:39.347Z,89.20
2019-05-29T16:23:10.884Z,89.40
2019-05-29T16:25:41.642Z,89.00
2019-05-29T16:28:13.079Z,88.60
2019-05-29T16:30:43.863Z,88.70
2019-05-29T16:33:15.071Z,89.00
2019-05-29T16:35:44.968Z,89.60
2019-05-29T16:38:21.917Z,90.20
2019-05-29T16:40:54.925Z,89.60
2019-05-29T16:43:25.799Z,89.50
2019-05-29T16:45:56.374Z,89.90
2019-05-29T16:48:30.160Z,90.20
2019-05-29T16:51:00.913Z,90.10
2019-05-29T16:53:33.001Z,90.20
2019-05-29T16:56:03.704Z,90.30
2019-05-29T16:58:36.290Z,90.50
2019-05-29T17:01:07.077Z,90.40
2019-05-29T17:03:37.920Z,90.50
2019-05-29T17:06:08.834Z,90.50
2019-05-29T17:08:41.601Z,90.60
2019-05-29T17:11:14.708Z,90.60
2019-05-29T17:13:48.270Z,90.80
2019-05-29T17:16:19.025Z,90.90
2019-05-29T17:18:51.354Z,91.00
2019-05-29T17:21:23.244Z,91.10
2019-05-29T17:23:54.988Z,91.00
2019-05-29T17:26:25.818Z,91.30
2019-05-29T17:28:56.510Z,91.30
2019-05-29T17:31:29.203Z,91.20
2019-05-29T17:34:01.778Z,91.20
2019-05-29T17:36:34.335Z,91.10
2019-05-29T17:39:07.642Z,91.20
2019-05-29T17:41:38.815Z,91.20
2019-05-29T17:44:09.483Z,91.40
2019-05-29T17:46:41.896Z,91.50
2019-05-29T17:49:12.758Z,91.50
2019-05-29T17:51:43.527Z,91.80
2019-05-29T17:54:15.681Z,91.90
2019-05-29T17:56:46.927Z,92.10
2019-05-29T17:59:17.915Z,92.10
2019-05-29T18:01:48.621Z,92.60
2019-05-29T18:04:20.498Z,92.50
2019-05-29T18:06:52.408Z,92.60
2019-05-29T18:09:27.446Z,92.90
2019-05-29T18:12:02.583Z,93.00
2019-05-29T18:14:33.739Z,93.10
2019-05-29T18:17:04.518Z,93.80
2019-05-29T18:19:35.545Z,93.70
2019-05-29T18:22:06.292Z,94.10
2019-05-29T18:24:37.098Z,93.90
2019-05-29T18:27:07.810Z,94.20
2019-05-29T18:29:38.872Z,94.10
2019-05-29T18:32:09.969Z,94.20
2019-05-29T18:34:40.650Z,94.30
2019-05-29T18:37:11.487Z,94.30
2019-05-29T18:39:42.236Z,94.50
2019-05-29T18:42:13.184Z,94.40
2019-05-29T18:44:43.897Z,94.40
2019-05-29T18:47:16.764Z,94.60
2019-05-29T18:49:47.575Z,94.70
2019-05-29T18:52:18.326Z,94.80
2019-05-29T18:54:50.186Z,94.90
2019-05-29T18:57:20.960Z,95.00
2019-05-29T18:59:51.743Z,95.00
2019-05-29T19:02:23.345Z,95.10
2019-05-29T19:04:54.120Z,95.10
2019-05-29T19:07:25.629Z,95.30
2019-05-29T19:09:56.583Z,95.30
2019-05-29T19:12:27.850Z,95.40
2019-05-29T19:14:59.728Z,95.50
2019-05-29T19:17:30.622Z,96.10
2019-05-29T19:20:01.631Z,96.70
2019-05-29T19:22:33.650Z,96.30
2019-05-29T19:25:05.105Z,96.30
2019-05-29T19:27:41.700Z,95.80
2019-05-29T19:30:12.994Z,96.30
2019-05-29T19:32:43.762Z,96.30
2019-05-29T19:35:14.577Z,96.30
2019-05-29T19:37:45.311Z,96.00
2019-05-29T19:40:16.706Z,96.40
2019-05-29T19:42:46.204Z,96.20
2019-05-29T19:45:18.175Z,96.10
2019-05-29T19:47:49.268Z,95.90
2019-05-29T19:50:20.183Z,95.90
2019-05-29T19:52:51.077Z,95.90
2019-05-29T19:55:22.027Z,95.90
2019-05-29T19:57:56.464Z,95.90
2019-05-29T20:00:26.032Z,95.80
2019-05-29T20:02:56.880Z,95.90
2019-05-29T20:05:28.815Z,95.90
2019-05-29T20:08:00.592Z,95.90
2019-05-29T20:10:31.723Z,96.00
2019-05-29T20:13:02.412Z,96.00
2019-05-29T20:15:33.978Z,96.00
2019-05-29T20:18:05.047Z,96.00
2019-05-29T20:20:36.504Z,96.10
2019-05-29T20:23:07.484Z,96.00
2019-05-29T20:25:39.067Z,96.10
2019-05-29T20:28:10.164Z,96.00
2019-05-29T20:30:40.903Z,96.00
2019-05-29T20:33:11.788Z,96.00
2019-05-29T20:35:43.191Z,96.00
2019-05-29T20:38:13.930Z,96.00
2019-05-29T20:40:45.042Z,96.00
2019-05-29T20:43:15.647Z,96.10
2019-05-29T20:45:46.515Z,96.10
2019-05-29T20:48:17.376Z,96.10
2019-05-29T20:50:48.951Z,96.20
2019-05-29T20:53:19.603Z,96.10
2019-05-29T20:55:50.347Z,96.10
2019-05-29T20:58:24.402Z,95.90
2019-05-29T21:00:53.374Z,95.90
2019-05-29T21:03:24.125Z,95.80
2019-05-29T21:05:54.895Z,95.90
2019-05-29T21:08:25.665Z,95.80
2019-05-29T21:10:56.445Z,95.80
2019-05-29T21:13:27.635Z,95.80
2019-05-29T21:15:58.407Z,95.80
2019-05-29T21:18:29.351Z,95.80
2019-05-29T21:20:59.494Z,95.80
2019-05-29T21:23:30.293Z,95.90
2019-05-29T21:26:01.187Z,95.80
2019-05-29T21:28:43.595Z,95.70
2019-05-29T21:31:10.386Z,95.60
2019-05-29T21:33:45.044Z,95.60
2019-05-29T21:36:14.155Z,95.60
2019-05-29T21:38:46.390Z,95.60
2019-05-29T21:41:17.832Z,95.90
2019-05-29T21:43:47.422Z,95.80
2019-05-29T21:46:18.494Z,95.60
2019-05-29T21:48:55.201Z,95.90
2019-05-29T21:51:28.784Z,95.50
2019-05-29T21:54:00.471Z,95.60
2019-05-29T21:56:31.481Z,95.20
2019-05-29T21:59:04.309Z,95.40
2019-05-29T22:01:37.929Z,95.10
2019-05-29T22:04:09.046Z,95.10
2019-05-29T22:06:40.554Z,95.10
2019-05-29T22:09:14.466Z,94.90
2019-05-29T22:11:45.302Z,94.80
2019-05-29T22:14:16.076Z,94.80
2019-05-29T22:16:46.967Z,94.80
2019-05-29T22:19:20.043Z,94.80
2019-05-29T22:21:51.166Z,94.80
2019-05-29T22:24:22.297Z,94.70
2019-05-29T22:26:53.194Z,94.80
2019-05-29T22:29:24.176Z,94.70
2019-05-29T22:31:55.376Z,94.70
2019-05-29T22:34:33.585Z,94.70
2019-05-29T22:37:05.241Z,94.60
2019-05-29T22:39:36.902Z,94.60
2019-05-29T22:42:07.868Z,94.60
2019-05-29T22:44:39.744Z,94.60
2019-05-29T22:47:10.485Z,94.60
2019-05-29T22:49:41.226Z,94.50
2019-05-29T22:52:12.264Z,94.50
2019-05-29T22:54:43.161Z,94.40
2019-05-29T22:57:14.138Z,94.40
2019-05-29T22:59:45.022Z,94.40
2019-05-29T23:02:15.734Z,94.40
2019-05-29T23:04:46.495Z,94.30
2019-05-29T23:07:17.306Z,94.20
2019-05-29T23:09:47.991Z,94.20
2019-05-29T23:12:18.730Z,94.20
2019-05-29T23:14:49.352Z,94.10
2019-05-29T23:17:20.221Z,94.10
2019-05-29T23:19:52.330Z,94.00
2019-05-29T23:22:24.583Z,94.00
2019-05-29T23:24:56.376Z,94.00
2019-05-29T23:27:29.646Z,93.90
2019-05-29T23:30:01.060Z,93.90
2019-05-29T23:32:33.351Z,93.90
2019-05-29T23:35:04.175Z,93.80
2019-05-29T23:37:34.891Z,93.80
2019-05-29T23:40:05.849Z,93.80
2019-05-29T23:42:39.567Z,93.80
2019-05-29T23:45:10.789Z,93.70
2019-05-29T23:47:41.254Z,93.70
2019-05-29T23:50:12.702Z,93.70
2019-05-29T23:52:43.326Z,93.60
2019-05-29T23:55:14.298Z,93.60
2019-05-29T23:57:45.102Z,93.60
